Terminal Aerodrome Forecast
Issued by NWS Wichita, KS

Home | Current Version | Previous Version | Text Only | Print | Product List | Glossary On
Versions: 1 2 3 4 5 6 7 8 9 10 11 12 13 14 15
000
FTUS43 KICT 180700 AAA
TAFICT
TAF AMD
KICT 180722Z 1807/1906 07013G22KT P6SM -TSRA SCT060CB BKN080
     FM180830 10008KT P6SM BKN150
     FM181300 18009KT P6SM SCT250
     FM181900 21013KT P6SM SCT250=

USA.gov is the U.S. government's official web portal to all federal, state and local government web resources and services.